createdAt,value
2023-03-22T00:00:17.468Z,82.60
2023-03-22T00:03:04.249Z,82.80
2023-03-22T00:05:50.604Z,82.60
2023-03-22T00:08:37.304Z,82.00
2023-03-22T00:11:26.790Z,81.90
2023-03-22T00:14:12.920Z,81.90
2023-03-22T00:16:58.892Z,81.60
2023-03-22T00:19:45.024Z,81.50
2023-03-22T00:22:31.261Z,81.60
2023-03-22T00:25:18.140Z,81.40
2023-03-22T00:28:04.294Z,81.30
2023-03-22T00:31:01.660Z,81.40
2023-03-22T00:33:47.702Z,81.00
2023-03-22T00:36:33.750Z,81.10
2023-03-22T00:39:20.397Z,81.00
2023-03-22T00:42:06.597Z,81.00
2023-03-22T00:44:52.970Z,80.80
2023-03-22T00:47:39.211Z,80.30
2023-03-22T00:50:25.738Z,81.50
2023-03-22T00:53:11.749Z,82.30
2023-03-22T00:55:58.868Z,82.20
2023-03-22T00:58:46.446Z,82.30
2023-03-22T01:01:33.063Z,82.20
2023-03-22T01:04:25.969Z,81.80
2023-03-22T01:07:21.585Z,81.50
2023-03-22T01:10:08.453Z,81.30
2023-03-22T01:12:56.975Z,81.50
2023-03-22T01:15:43.087Z,81.30
2023-03-22T01:18:29.166Z,81.00
2023-03-22T01:21:15.406Z,80.90
2023-03-22T01:24:01.746Z,80.80
2023-03-22T01:26:48.120Z,81.00
2023-03-22T01:29:35.458Z,80.80
2023-03-22T01:32:21.364Z,81.00
2023-03-22T01:35:08.708Z,80.90
2023-03-22T01:37:56.024Z,81.00
2023-03-22T01:40:42.900Z,80.90
2023-03-22T01:43:29.966Z,81.60
2023-03-22T01:46:17.542Z,81.50
2023-03-22T01:49:06.714Z,81.90
2023-03-22T01:51:56.021Z,81.70
2023-03-22T01:54:55.548Z,81.60
2023-03-22T01:57:53.096Z,81.40
2023-03-22T02:00:52.038Z,81.20
2023-03-22T02:04:20.133Z,81.10
2023-03-22T02:07:15.230Z,81.10
2023-03-22T02:10:03.008Z,80.70
2023-03-22T02:13:16.251Z,81.30
2023-03-22T02:16:17.853Z,81.60
2023-03-22T02:19:48.778Z,82.30
2023-03-22T02:22:39.160Z,82.70
2023-03-22T02:25:28.324Z,83.50
2023-03-22T02:28:25.865Z,83.30
2023-03-22T02:31:37.247Z,84.00
2023-03-22T02:34:32.079Z,84.30
2023-03-22T02:37:21.343Z,84.10
2023-03-22T02:40:19.630Z,84.40
2023-03-22T02:43:15.464Z,84.60
2023-03-22T02:46:11.618Z,84.60
2023-03-22T02:49:39.378Z,84.80
2023-03-22T02:52:40.780Z,85.30
2023-03-22T02:55:59.329Z,85.70
2023-03-22T02:58:49.115Z,86.00
2023-03-22T03:01:50.733Z,85.40
2023-03-22T03:04:43.663Z,85.40
2023-03-22T03:07:31.060Z,84.80
2023-03-22T03:10:19.793Z,85.60
2023-03-22T03:13:06.135Z,86.00
2023-03-22T03:15:57.394Z,86.50
2023-03-22T03:19:05.880Z,85.80
2023-03-22T03:22:01.127Z,86.70
2023-03-22T03:24:58.448Z,87.40
2023-03-22T03:28:03.624Z,87.90
2023-03-22T03:30:58.815Z,87.70
2023-03-22T03:33:56.563Z,88.70
2023-03-22T03:36:51.191Z,90.00
2023-03-22T03:39:43.990Z,90.40
2023-03-22T03:42:31.677Z,90.70
2023-03-22T03:45:19.394Z,91.10
2023-03-22T03:48:11.756Z,91.20
2023-03-22T03:51:01.079Z,91.20
2023-03-22T03:53:47.246Z,91.20
2023-03-22T03:56:33.684Z,91.20
2023-03-22T03:59:23.284Z,91.10
2023-03-22T04:02:11.913Z,91.20
2023-03-22T04:04:58.030Z,91.20
2023-03-22T04:07:43.970Z,91.10
2023-03-22T04:10:30.560Z,91.10
2023-03-22T04:13:17.146Z,91.00
2023-03-22T04:16:03.483Z,91.00
2023-03-22T04:18:53.812Z,91.10
2023-03-22T04:21:39.919Z,90.90
2023-03-22T04:24:28.210Z,90.60
2023-03-22T04:27:15.006Z,90.60
2023-03-22T04:30:22.884Z,90.50
2023-03-22T04:33:22.962Z,90.60
2023-03-22T04:36:31.227Z,90.90
2023-03-22T04:39:33.175Z,91.00
2023-03-22T04:42:58.917Z,91.30
2023-03-22T04:46:02.004Z,91.40
2023-03-22T04:48:55.857Z,91.30
2023-03-22T04:51:42.651Z,91.40
2023-03-22T04:54:54.800Z,91.50
2023-03-22T04:57:40.744Z,91.50
2023-03-22T05:00:30.394Z,91.50
2023-03-22T05:03:19.222Z,91.40
2023-03-22T05:06:07.129Z,91.50
2023-03-22T05:09:06.296Z,91.20
2023-03-22T05:11:52.588Z,91.20
2023-03-22T05:14:56.909Z,91.50
2023-03-22T05:17:48.518Z,91.60
2023-03-22T05:20:35.387Z,91.90
2023-03-22T05:23:34.681Z,91.80
2023-03-22T05:26:26.255Z,91.70
2023-03-22T05:29:14.024Z,91.70
2023-03-22T05:32:25.481Z,91.80
2023-03-22T05:35:14.120Z,91.80
2023-03-22T05:38:06.482Z,91.80
2023-03-22T05:40:55.666Z,92.10
2023-03-22T05:43:41.963Z,92.20
2023-03-22T05:46:29.381Z,92.20
2023-03-22T05:49:34.543Z,92.30
2023-03-22T05:52:21.571Z,92.40
2023-03-22T05:55:19.888Z,92.30
2023-03-22T05:58:08.511Z,92.20
2023-03-22T06:01:03.360Z,92.20
2023-03-22T06:04:09.180Z,92.10
2023-03-22T06:07:18.931Z,91.90
2023-03-22T06:10:14.453Z,91.50
2023-03-22T06:13:00.473Z,91.10
2023-03-22T06:15:50.417Z,90.80
2023-03-22T06:18:39.826Z,90.70
2023-03-22T06:21:29.810Z,90.50
2023-03-22T06:24:15.741Z,90.30
2023-03-22T06:27:01.882Z,90.60
2023-03-22T06:29:50.907Z,90.40
2023-03-22T06:32:41.516Z,90.10
2023-03-22T06:35:27.986Z,89.60
2023-03-22T06:38:14.013Z,89.20
2023-03-22T06:40:59.858Z,89.00
2023-03-22T06:43:46.462Z,87.80
2023-03-22T06:46:47.822Z,87.10
2023-03-22T06:49:47.755Z,87.80
2023-03-22T06:52:39.119Z,86.80
2023-03-22T06:55:27.147Z,84.60
2023-03-22T06:58:14.558Z,84.30
2023-03-22T07:01:00.876Z,83.90
2023-03-22T07:03:48.428Z,83.60
2023-03-22T07:06:35.967Z,83.20
2023-03-22T07:09:24.834Z,81.10
2023-03-22T07:12:13.763Z,81.10
2023-03-22T07:15:00.438Z,80.30
2023-03-22T07:18:00.995Z,80.00
2023-03-22T07:20:47.120Z,78.40
2023-03-22T07:23:33.673Z,78.90
2023-03-22T07:26:26.389Z,78.90
2023-03-22T07:29:14.720Z,78.60
2023-03-22T07:32:00.966Z,77.90
2023-03-22T07:34:56.674Z,77.90
2023-03-22T07:37:42.929Z,78.10
2023-03-22T07:40:39.142Z,76.10
2023-03-22T07:43:26.283Z,76.10
2023-03-22T07:46:23.906Z,75.60
2023-03-22T07:49:28.763Z,74.40
2023-03-22T07:52:29.639Z,73.50
2023-03-22T07:55:17.536Z,72.10
2023-03-22T07:58:03.953Z,71.90
2023-03-22T08:00:50.428Z,72.20
2023-03-22T08:03:59.659Z,72.10
2023-03-22T08:06:58.608Z,72.10
2023-03-22T08:09:46.158Z,71.60
2023-03-22T08:12:32.656Z,72.30
2023-03-22T08:15:27.311Z,70.70
2023-03-22T08:18:13.602Z,71.10
2023-03-22T08:21:00.604Z,70.70
2023-03-22T08:23:49.947Z,70.20
2023-03-22T08:26:58.559Z,68.60
2023-03-22T08:29:52.462Z,68.50
2023-03-22T08:32:38.363Z,67.40
2023-03-22T08:35:24.545Z,67.50
2023-03-22T08:38:11.138Z,66.20
2023-03-22T08:41:05.111Z,66.20
2023-03-22T08:43:51.148Z,64.80
2023-03-22T08:46:37.581Z,64.30
2023-03-22T08:49:23.812Z,63.90
2023-03-22T08:52:18.967Z,64.90
2023-03-22T08:55:28.275Z,64.10
2023-03-22T08:58:42.520Z,63.80
2023-03-22T09:02:03.691Z,63.20
2023-03-22T09:04:50.927Z,61.00
2023-03-22T09:07:37.373Z,60.50
2023-03-22T09:10:29.735Z,61.00
2023-03-22T09:13:17.222Z,60.00
2023-03-22T09:16:10.113Z,59.40
2023-03-22T09:18:56.205Z,57.60
2023-03-22T09:21:43.676Z,58.80
2023-03-22T09:24:37.521Z,58.70
2023-03-22T09:27:23.798Z,58.90
2023-03-22T09:30:11.223Z,57.80
2023-03-22T09:32:57.343Z,57.10
2023-03-22T09:35:44.013Z,57.70
2023-03-22T09:38:33.908Z,56.80
2023-03-22T09:41:32.865Z,56.70
2023-03-22T09:44:27.349Z,57.10
2023-03-22T09:47:28.752Z,55.50
2023-03-22T09:50:25.424Z,55.10
2023-03-22T09:53:15.477Z,54.40
2023-03-22T09:56:20.960Z,52.20
2023-03-22T09:59:20.133Z,51.30
2023-03-22T10:02:36.009Z,51.10
2023-03-22T10:05:40.434Z,49.60
2023-03-22T10:08:32.318Z,49.70
2023-03-22T10:11:37.486Z,48.30
2023-03-22T10:14:34.581Z,48.20
2023-03-22T10:17:27.020Z,47.80
2023-03-22T10:20:42.962Z,47.70
2023-03-22T10:23:40.106Z,47.40
2023-03-22T10:26:32.205Z,47.90
2023-03-22T10:29:38.877Z,48.40
2023-03-22T10:32:54.786Z,47.40
2023-03-22T10:35:44.080Z,47.90
2023-03-22T10:38:31.510Z,46.90
2023-03-22T10:41:20.740Z,46.50
2023-03-22T10:44:07.420Z,47.00
2023-03-22T10:46:56.423Z,47.80
2023-03-22T10:49:48.239Z,47.20
2023-03-22T10:52:47.686Z,47.20
2023-03-22T10:55:43.617Z,46.70
2023-03-22T10:58:32.512Z,47.60
2023-03-22T11:01:45.096Z,47.10
2023-03-22T11:04:31.673Z,45.50
2023-03-22T11:07:29.663Z,45.00
2023-03-22T11:10:29.549Z,45.50
2023-03-22T11:13:22.280Z,44.70
2023-03-22T11:16:08.566Z,45.20
2023-03-22T11:18:56.835Z,45.70
2023-03-22T11:21:43.440Z,46.60
2023-03-22T11:24:33.153Z,44.50
2023-03-22T11:27:21.407Z,43.60
2023-03-22T11:30:27.819Z,44.60
2023-03-22T11:33:21.095Z,43.60
2023-03-22T11:36:18.614Z,42.80
2023-03-22T11:39:07.887Z,42.60
2023-03-22T11:41:58.041Z,42.90
2023-03-22T11:44:44.864Z,43.50
2023-03-22T11:47:38.283Z,41.60
2023-03-22T11:50:32.169Z,41.40
2023-03-22T11:53:22.433Z,42.50
2023-03-22T11:56:17.226Z,42.70
2023-03-22T11:59:08.757Z,42.20
2023-03-22T12:02:19.685Z,41.60
2023-03-22T12:05:12.808Z,41.40
2023-03-22T12:08:07.019Z,41.30
2023-03-22T12:11:07.212Z,40.60
2023-03-22T12:14:00.664Z,40.70
2023-03-22T12:16:51.103Z,40.80
2023-03-22T12:20:00.730Z,41.50
2023-03-22T12:22:52.744Z,39.10
2023-03-22T12:25:42.815Z,39.60
2023-03-22T12:28:55.200Z,40.50
2023-03-22T12:31:58.718Z,40.30
2023-03-22T12:34:50.908Z,39.70
2023-03-22T12:37:42.358Z,39.40
2023-03-22T12:40:40.812Z,40.30
2023-03-22T12:43:44.984Z,41.50
2023-03-22T12:46:42.842Z,41.40
2023-03-22T12:50:00.623Z,41.20
2023-03-22T12:52:50.336Z,40.70
2023-03-22T12:55:40.342Z,39.60
2023-03-22T12:58:27.734Z,38.90
2023-03-22T13:01:22.751Z,39.20
2023-03-22T13:04:28.057Z,40.80
2023-03-22T13:07:16.543Z,40.90
2023-03-22T13:10:36.300Z,39.50
2023-03-22T13:13:23.043Z,40.00
2023-03-22T13:16:09.632Z,39.60
2023-03-22T13:19:02.155Z,40.10
2023-03-22T13:21:50.003Z,39.50
2023-03-22T13:25:23.714Z,39.30
2023-03-22T13:28:29.610Z,39.70
2023-03-22T13:31:41.317Z,39.10
2023-03-22T13:34:37.831Z,39.30
2023-03-22T13:37:37.501Z,38.70
2023-03-22T13:40:43.823Z,38.70
2023-03-22T13:43:43.473Z,38.70
2023-03-22T13:46:45.572Z,38.20
2023-03-22T13:49:32.001Z,38.60
2023-03-22T13:52:37.416Z,37.60
2023-03-22T13:55:44.591Z,39.20
2023-03-22T13:58:36.420Z,39.80
2023-03-22T14:01:35.187Z,39.60
2023-03-22T14:04:45.483Z,39.80
2023-03-22T14:07:32.035Z,39.70
2023-03-22T14:10:31.315Z,39.70
2023-03-22T14:13:29.593Z,39.90
2023-03-22T14:16:30.284Z,40.50
2023-03-22T14:19:34.090Z,40.70
